Tiempo atmosférico en la estación meteorológica de Briviesca, Burgos (730 m.)



Fecha
DESCASC
Temp. máxima en grados centígrados (hora)
DESCASC
Temp. mínima en grados centígrados (hora)
DESCASC
Temp. media en grados centígrados
DESCASC
Racha de viento máxima en m/sg (hora)
DESCASC
Velocidad máxima media en intervalos de 10 minutos(hora)
DESCASC
Precipitaciones diarias en mm
DESCASC
Precipitaciones de 00:00 a 06:00 en mm
DESCASC
Precipitaciones de 06:00 a 12:00 en mm
DESCASC
Precipitaciones de 12:00 a 18:00 en mm
DESCASC
Precipitaciones de 18:00 a 24:00 en mm
DESCASC
02-07-2020 20.6 (16:20) 12.9 (23:30) 16.8 7.5 (19:30) 4.72 (16:50) 0 0 0 0 0
01-07-2020 27.9 (16:10) 14.1 (06:30) 21 10.83 (17:20) 7.22 (17:20) 0.6 0.6 0 0 0
30-06-2020 30.9 (17:20) 11.4 (00:00) 21.1 10.28 (19:40) 6.67 (19:40) 2 0 0 0 2
29-06-2020 25 (17:20) 14 (00:00) 19.5 7.78 (20:30) 4.72 (20:30) 0 0 0 0 0
28-06-2020 28.9 (16:10) 12.1 (00:00) 20.5 8.89 (18:40) 6.11 (18:40) 0 0 0 0 0
27-06-2020 27.7 (18:20) 11.2 (00:00) 19.5 10.28 (12:20) 6.39 (12:10) 0 0 0 0 0
26-06-2020 29.5 (17:50) 13.1 (00:00) 21.3 12.22 (16:40) 7.5 (16:50) 0 0 0 0 0
25-06-2020 24.7 (16:30) 15.1 (00:00) 19.9 11.39 (13:00) 7.22 (12:20) 1.2 0 0 0.8 0.4
24-06-2020 32.6 (16:50) 15.1 (00:00) 23.8 13.33 (17:30) 8.33 (17:40) 0 0 0 0 0
23-06-2020 32 (17:50) 9.7 (00:00) 20.8 6.67 (17:10) 3.89 (18:20) 0 0 0 0 0
22-06-2020 27.5 (17:00) 13 (00:00) 20.3 8.33 (17:30) 5 (19:30) 0 0 0 0 0
21-06-2020 27 (17:30) 9.6 (00:00) 18.3 10 (18:40) 6.39 (18:30) 0 0 0 0 0
20-06-2020 28 (17:30) 7.4 (00:00) 17.7 7.22 (20:40) 5.28 (20:40) 0 0 0 0 0
19-06-2020 26.2 (18:20) 8.1 (00:00) 17.2 8.06 (18:30) 6.11 (18:50) 0 0 0 0 0
18-06-2020 20.5 (17:40) 9.8 (00:00) 15.2 7.5 (19:10) 5.56 (19:40) 5.4 3.2 2.2 0 0
17-06-2020 19.2 (16:20) 10.2 (00:00) 14.7 6.67 (17:00) 4.72 (20:00) 0.6 0.6 0 0 0
16-06-2020 21.6 (15:30) 10.2 (00:00) 15.9 12.5 (16:40) 6.67 (15:30) 6.6 0 0 1.8 4.8
15-06-2020 21.5 (19:10) 9.2 (00:00) 15.3 8.06 (15:20) 5 (11:40) 0 0 0 0 0
14-06-2020 19.9 (15:40) 7 (00:00) 13.4 10.83 (13:20) 6.94 (13:20) 0 0 0 0 0
13-06-2020 18 (15:50) 9.4 (00:00) 13.7 12.22 (12:10) 8.61 (15:50) 0 0 0 0 0
12-06-2020 16.4 (15:20) 6.3 (00:00) 11.3 15.28 (12:30) 9.17 (12:10) 1.2 0 0 1.2 0
11-06-2020 19.6 (15:00) 7.9 (00:00) 13.8 13.89 (14:10) 8.89 (15:10) 10.8 0 0.2 3.2 7.4
10-06-2020 18.2 (16:10) 3.3 (00:00) 10.8 7.22 (18:40) 5 (18:40) 0 0 0 0 0
09-06-2020 15.4 (16:50) 4.3 (00:00) 9.8 8.33 (17:10) 5.56 (17:10) 0 0 0 0 0
08-06-2020 14.4 (19:10) 3.4 (02:50) 8.9 11.67 (17:00) 5.28 (19:40) 0.4 0 0 0.4 0
07-06-2020 12.4 (00:00) 6.3 (00:00) 9.3 8.06 (17:30) 4.72 (17:00) 10.2 5.2 1.8 3.2 0
06-06-2020 21.2 (15:00) 10.5 (00:00) 15.9 9.44 (16:50) 6.39 (16:50) 8.2 0 0 1 7.2
05-06-2020 24.3 (18:30) 6.3 (00:00) 15.3 8.89 (17:30) 5 (13:40) 0 0 0 0 0
04-06-2020 16.7 (14:20) 7.4 (00:00) 12.1 11.67 (17:40) 6.67 (17:20) 0 0 0 0 0

Gráficas

Temp. máximas Temp. mínimas Temp. medias Precipitaciones Rachas de viento máximas Velocidades máximas media en intervalos de 10 minutos

Datos horarios

Fecha y hora oficial Temperatura (ºC) Velocidad del viento (km/h) Dirección del viento Racha (km/h) Dirección de racha Precipitación (mm) Presión (hPa) Tendencia (hPa) Humedad (%)
2020-07-03 23:00:00 12.7 15 Sudeste 24 Este 0 -- -- 83
2020-07-03 22:00:00 14.8 13 Este 21 Este 0 -- -- 74
2020-07-03 21:00:00 18.8 12 Este 22 Este 0 -- -- 60
2020-07-03 20:00:00 20.6 13 Este 24 Este 0 -- -- 53
2020-07-03 19:00:00 21.4 12 Nordeste 26 Este 0 -- -- 49
2020-07-03 18:00:00 22.2 14 Nordeste 28 Nordeste 0 -- -- 46
2020-07-03 17:00:00 22.1 10 Nordeste 25 Nordeste 0 -- -- 43
2020-07-03 16:00:00 21.3 13 Nordeste 28 Nordeste 0 -- -- 43
2020-07-03 15:00:00 20.4 14 Este 28 Este 0 -- -- 44
2020-07-03 14:00:00 19.7 14 Nordeste 28 Nordeste 0 -- -- 50
2020-07-03 13:00:00 17.6 10 Nordeste 23 Nordeste 0 -- -- 57
2020-07-03 12:00:00 16.5 11 Nordeste 19 Nordeste 0 -- -- 62
2020-07-03 11:00:00 16 9 Este 21 Nordeste 0 -- -- 63
2020-07-03 10:00:00 14.3 11 Este 18 Este 0 -- -- 72
2020-07-03 09:00:00 12.8 9 Nordeste 12 Nordeste 0 -- -- 82
2020-07-03 08:00:00 11.6 6 Este 12 Este 0 -- -- 89
2020-07-03 07:00:00 10.1 10 Este 12 Este 0 -- -- 93
2020-07-03 06:00:00 11.9 3 Este 10 Nordeste 0 -- -- 87
2020-07-03 05:00:00 12 5 Este 12 Este 0 -- -- 87
2020-07-03 04:00:00 12.3 8 Nordeste 13 Este 0 -- -- 85
2020-07-03 03:00:00 12.5 9 Nordeste 15 Nordeste 0 -- -- 85
2020-07-03 02:00:00 12.6 8 Nordeste 22 Nordeste 0 -- -- 85
2020-07-03 01:00:00 12.9 14 Nordeste 20 Nordeste 0 -- -- 82
2020-07-03 00:00:00 13 10 Nordeste 20 Nordeste 0 -- -- 82
2020-07-02 23:00:00 13 10 Nordeste 21 Nordeste 0 -- -- 82
2020-07-02 22:00:00 13.4 11 Nordeste 23 Nordeste 0 -- -- 79
2020-07-02 21:00:00 13.7 13 Nordeste 24 Nordeste 0 -- -- 78
2020-07-02 20:00:00 14.4 13 Nordeste 27 Nordeste 0 -- -- 81
2020-07-02 19:00:00 15.8 16 Nordeste 24 Nordeste 0 -- -- 78
2020-07-02 18:00:00 17 17 Nordeste 26 Nordeste 0 -- -- 75
2020-07-02 17:00:00 18.9 16 Nordeste 26 Este 0 -- -- 72
2020-07-02 16:00:00 20.3 13 Nordeste 22 Nordeste 0 -- -- 69
2020-07-02 15:00:00 20.2 10 Nordeste 21 Nordeste 0 -- -- 68
2020-07-02 14:00:00 19 5 Este 20 Nordeste 0 -- -- 72
2020-07-02 13:00:00 17.9 12 Nordeste 17 Nordeste 0 -- -- 77
2020-07-02 12:00:00 16.5 11 Nordeste 18 Nordeste 0 -- -- 83
2020-07-02 11:00:00 16.6 10 Nordeste 19 Este 0 -- -- 83
2020-07-02 10:00:00 15.7 11 Este 18 Este 0 -- -- 88
2020-07-02 09:00:00 15.2 9 Este 15 Este 0 -- -- 91
2020-07-02 08:00:00 14.8 10 Nordeste 18 Este 0 -- -- 93
2020-07-02 07:00:00 14.6 9 Este 17 Este 0 -- -- 94
2020-07-02 06:00:00 14.7 10 Este 16 Este 0 -- -- 93
2020-07-02 05:00:00 15.1 8 Este 14 Este 0 -- -- 92
2020-07-02 04:00:00 15.3 5 Nordeste 21 Este 0 -- -- 92
2020-07-02 03:00:00 15.6 8 Este 14 Este 0 -- -- 91
2020-07-02 02:00:00 16 6 Este 15 Este 0 -- -- 91
2020-07-02 01:00:00 16.4 9 Este 17 Este 0 -- -- 91
2020-07-02 00:00:00 16.7 8 Este 19 Este 0 -- -- 90
2020-07-01 23:00:00 17 11 Este 22 Este 0 -- -- 88
2020-07-01 22:00:00 17.6 10 Este 24 Este 0 -- -- 86
2020-07-01 21:00:00 17.9 17 Este 29 Nordeste 0 -- -- 86
2020-07-01 20:00:00 19.1 19 Nordeste 30 Este 0 -- -- 81
2020-07-01 19:00:00 21.5 19 Nordeste 32 Nordeste 0 -- -- 74
2020-07-01 18:00:00 23.8 23 Nordeste 39 Nordeste 0 -- -- 65
2020-07-01 17:00:00 25.1 17 Nordeste 35 Este 0 -- -- 62
2020-07-01 16:00:00 27.8 18 Este 30 Este 0 -- -- 54
2020-07-01 15:00:00 26.2 17 Este 27 Este 0 -- -- 59
2020-07-01 14:00:00 26.9 10 Norte 21 Oeste 0 -- -- 57
2020-07-01 13:00:00 25.4 6 Este 17 Sudoeste 0 -- -- 62
2020-07-01 12:00:00 23.4 5 Nordeste 10 Oeste 0 -- -- 68
2020-07-01 11:00:00 21.8 6 Este 12 Este 0 -- -- 73
2020-07-01 10:00:00 20 0 Calma 6 Norte 0 -- -- 83
2020-07-01 09:00:00 17.9 3 Norte 9 Noroeste 0 -- -- 92
2020-07-01 08:00:00 15.9 4 Sudoeste 9 Sudoeste 0 -- -- 97
2020-07-01 07:00:00 14.1 0 Calma 6 Oeste 0 -- -- 98
2020-07-01 06:00:00 14.3 0 Calma 5 Sudeste 0 -- -- 97
2020-07-01 05:00:00 15.2 0 Calma 6 Sudeste 0 -- -- 96
2020-07-01 04:00:00 16.3 3 Sudoeste 6 Sudoeste 0 -- -- 96
2020-07-01 03:00:00 16.3 3 Sudoeste 13 Sudoeste 0 -- -- 95
2020-07-01 02:00:00 16.9 6 Sudoeste 13 Sudeste 0 -- -- 95
2020-07-01 01:00:00 18 0 Calma 29 Este 0.6 -- -- 92
2020-07-01 00:00:00 19.7 10 Noroeste 23 Sudoeste 2 -- -- 87
2020-06-30 23:00:00 19.6 0 Calma 9 Este 0 -- -- 72
2020-06-30 22:00:00 22.8 6 Este 31 Este 0 -- -- 59
2020-06-30 21:00:00 26.7 14 Este 36 Este 0 -- -- 48
2020-06-30 20:00:00 28.8 22 Este 37 Nordeste 0 -- -- 44
2020-06-30 19:00:00 29.9 21 Este 32 Sudeste 0 -- -- 38
2020-06-30 18:00:00 30.7 15 Este 30 Sudeste 0 -- -- 37
2020-06-30 17:00:00 30.7 13 Este 23 Este 0 -- -- 35
2020-06-30 16:00:00 30.2 12 Este 22 Este 0 -- -- 33
2020-06-30 15:00:00 29.1 10 Este 24 Nordeste 0 -- -- 34
2020-06-30 14:00:00 28.1 10 Este 22 Este 0 -- -- 36
2020-06-30 13:00:00 26 7 Este 20 Este 0 -- -- 33
2020-06-30 12:00:00 23.5 7 Este 17 Este 0 -- -- 40
2020-06-30 11:00:00 20.3 6 Nordeste 15 Este 0 -- -- 64
2020-06-30 10:00:00 15.8 0 Calma 0 Calma 0 -- -- 89
2020-06-30 09:00:00 12.8 0 Calma 0 Calma 0 -- -- 100
2020-06-30 08:00:00 12.5 0 Calma 3 Norte 0 -- -- 100
2020-06-30 07:00:00 12.3 2 Noroeste 4 Norte 0 -- -- 100
2020-06-30 06:00:00 11.9 4 Sudoeste 9 Sudoeste 0 -- -- 100
2020-06-30 05:00:00 11.5 4 Sudoeste 8 Sur 0 -- -- 99
2020-06-30 04:00:00 12 3 Sur 5 Sudoeste 0 -- -- 99
2020-06-30 03:00:00 12.3 0 Calma 15 Sudeste 0 -- -- 97
2020-06-30 02:00:00 13.1 11 Sudeste 18 Sudeste 0 -- -- 97
2020-06-30 01:00:00 13.2 12 Sudeste 16 Sudeste 0 -- -- 96
2020-06-30 00:00:00 14 10 Sudeste 20 Sudeste 0 -- -- 94
2020-06-29 23:00:00 15.1 10 Sudeste 21 Sudeste 0 -- -- 91
2020-06-29 22:00:00 16.8 15 Este 23 Este 0 -- -- 84
2020-06-29 21:00:00 19.8 17 Este 28 Sudeste 0 -- -- 73
2020-06-29 20:00:00 22.3 15 Este 26 Este 0 -- -- 66
2020-06-29 19:00:00 23.9 13 Nordeste 24 Este 0 -- -- 62
2020-06-29 18:00:00 24.3 10 Nordeste 24 Nordeste 0 -- -- 59
2020-06-29 17:00:00 24.7 10 Nordeste 24 Este 0 -- -- 57
2020-06-29 16:00:00 23.6 9 Norte 25 Nordeste 0 -- -- 62
2020-06-29 15:00:00 22.4 12 Nordeste 24 Nordeste 0 -- -- 65
2020-06-29 14:00:00 21.9 13 Nordeste 21 Este 0 -- -- 66
2020-06-29 13:00:00 20.5 9 Este 23 Nordeste 0 -- -- 71
2020-06-29 12:00:00 20.5 13 Este 24 Este 0 -- -- 71
2020-06-29 11:00:00 19.1 12 Este 22 Este 0 -- -- 77
2020-06-29 10:00:00 17.8 12 Este 18 Este 0 -- -- 83
2020-06-29 09:00:00 16.4 12 Este 20 Este 0 -- -- 91
2020-06-29 08:00:00 16 9 Este 17 Este 0 -- -- 94
2020-06-29 07:00:00 15.5 9 Este 13 Sudeste 0 -- -- 95
2020-06-29 06:00:00 15.7 6 Sudeste 12 Este 0 -- -- 94
2020-06-29 05:00:00 16.1 6 Este 15 Este 0 -- -- 92
2020-06-29 04:00:00 16.4 9 Este 15 Este 0 -- -- 92
2020-06-29 03:00:00 16.4 9 Este 15 Sudeste 0 -- -- 91
2020-06-29 02:00:00 16.5 10 Este 18 Este 0 -- -- 90
2020-06-29 01:00:00 16.9 6 Sudeste 19 Sudeste 0 -- -- 88
2020-06-29 00:00:00 17.3 10 Este 16 Este 0 -- -- 86
2020-06-28 23:00:00 17.2 9 Este 16 Este 0 -- -- 87
2020-06-28 22:00:00 18.3 12 Este 26 Nordeste 0 -- -- 82
2020-06-28 21:00:00 21.3 18 Nordeste 30 Nordeste 0 -- -- 72
2020-06-28 20:00:00 24.3 19 Nordeste 30 Este 0 -- -- 63
2020-06-28 19:00:00 25.3 15 Este 32 Este 0 -- -- 57
2020-06-28 18:00:00 27 19 Este 31 Este 0 -- -- 52
2020-06-28 17:00:00 28.6 5 Sur 17 Noroeste 0 -- -- 41
2020-06-28 16:00:00 28.7 12 Oeste 18 Sudoeste 0 -- -- 41
2020-06-28 15:00:00 27.5 6 Nordeste 22 Noroeste 0 -- -- 47
2020-06-28 14:00:00 26.4 6 Sudoeste 17 Noroeste 0 -- -- 50
2020-06-28 13:00:00 24.6 5 Oeste 19 Noroeste 0 -- -- 58
2020-06-28 12:00:00 22.8 10 Norte 21 Noroeste 0 -- -- 63
2020-06-28 11:00:00 20.2 8 Norte 16 Norte 0 -- -- 75
2020-06-28 10:00:00 18.8 0 Calma 10 Este 0 -- -- 79
2020-06-28 09:00:00 16.8 3 Norte 6 Norte 0 -- -- 87
2020-06-28 08:00:00 14.1 2 Sudoeste 6 Sur 0 -- -- 94
2020-06-28 07:00:00 12.1 2 Sur 7 Sudoeste 0 -- -- 97
2020-06-28 06:00:00 12.6 3 Sur 6 Sudeste 0 -- -- 96
2020-06-28 05:00:00 13.5 4 Sudoeste 12 Sudeste 0 -- -- 94
2020-06-28 04:00:00 14 3 Sudoeste 12 Sudeste 0 -- -- 93
2020-06-28 03:00:00 14.9 5 Sudeste 17 Sudeste 0 -- -- 91
2020-06-28 02:00:00 15.5 12 Sudeste 16 Sudeste 0 -- -- 88
2020-06-28 01:00:00 16.4 11 Sudeste 14 Sudeste 0 -- -- 84
2020-06-28 00:00:00 17.4 8 Sudeste 19 Sudeste 0 -- -- 80
2020-06-27 23:00:00 19.6 8 Este 21 Este 0 -- -- 75
2020-06-27 22:00:00 21.9 15 Este 26 Norte 0 -- -- 67
2020-06-27 21:00:00 25.8 8 Oeste 21 Oeste 0 -- -- 47
2020-06-27 20:00:00 27 12 Oeste 27 Oeste 0 -- -- 44
2020-06-27 19:00:00 27.1 12 Oeste 29 Oeste 0 -- -- 46
2020-06-27 18:00:00 27 16 Oeste 29 Oeste 0 -- -- 45
2020-06-27 17:00:00 27 15 Sudoeste 31 Oeste 0 -- -- 46
2020-06-27 16:00:00 26.9 17 Sudoeste 30 Oeste 0 -- -- 46
2020-06-27 15:00:00 24.7 17 Oeste 32 Oeste 0 -- -- 51
2020-06-27 14:00:00 25.6 17 Oeste 36 Oeste 0 -- -- 51
2020-06-27 13:00:00 23.8 21 Sudoeste 37 Sudoeste 0 -- -- 55
2020-06-27 12:00:00 21.7 20 Oeste 34 Sudoeste 0 -- -- 61
2020-06-27 11:00:00 20.9 17 Sudoeste 34 Sudoeste 0 -- -- 66
2020-06-27 10:00:00 19.6 15 Oeste 28 Oeste 0 -- -- 69
2020-06-27 09:00:00 16.9 0 Calma 7 Sudoeste 0 -- -- 84
2020-06-27 08:00:00 13 0 Calma 4 Este 0 -- -- 98
2020-06-27 07:00:00 11.2 0 Calma 8 Sudoeste 0 -- -- 97
2020-06-27 06:00:00 12 4 Sur 8 Sur 0 -- -- 96
2020-06-27 05:00:00 12.5 3 Oeste 10 Sur 0 -- -- 96
2020-06-27 04:00:00 12.9 5 Sudoeste 11 Sur 0 -- -- 98
2020-06-27 03:00:00 13.4 6 Sudoeste 10 Sudoeste 0 -- -- 97
2020-06-27 02:00:00 14.1 0 Calma 8 Oeste 0 -- -- 96
2020-06-27 01:00:00 14.8 0 Calma 11 Sudeste 0 -- -- 94
2020-06-27 00:00:00 15.4 6 Sur 12 Sudoeste 0 -- -- 94
2020-06-26 23:00:00 16.4 4 Este 24 Este 0 -- -- 90
2020-06-26 22:00:00 18.3 15 Este 30 Nordeste 0 -- -- 84
2020-06-26 21:00:00 26.2 10 Oeste 22 Oeste 0 -- -- 30
2020-06-26 20:00:00 25.8 12 Oeste 27 Oeste 0 -- -- 34
2020-06-26 19:00:00 27.7 17 Sudoeste 36 Sudoeste 0 -- -- 33
2020-06-26 18:00:00 29 20 Oeste 41 Sudoeste 0 -- -- 27
2020-06-26 17:00:00 28.6 24 Sudoeste 44 Sudoeste 0 -- -- 28
2020-06-26 16:00:00 28.7 24 Sudoeste 39 Sudoeste 0 -- -- 39
2020-06-26 15:00:00 26.9 13 Sur 27 Sudeste 0 -- -- 56
2020-06-26 14:00:00 26 14 Sudeste 27 Este 0 -- -- 61
2020-06-26 13:00:00 24.1 8 Sur 18 Sudeste 0 -- -- 68
2020-06-26 12:00:00 22 6 Sudeste 20 Este 0 -- -- 74
2020-06-26 11:00:00 19.6 11 Sudeste 25 Sudeste 0 -- -- 84
2020-06-26 10:00:00 18 11 Sudeste 24 Sudeste 0 -- -- 92
2020-06-26 09:00:00 17.1 13 Sudeste 23 Sudeste 0 -- -- 97
2020-06-26 08:00:00 15.5 4 Nordeste 8 Nordeste 0 -- -- 100
2020-06-26 07:00:00 15.2 3 Noroeste 10 Este 0 -- -- 100
2020-06-26 06:00:00 14.8 4 Sudeste 8 Sudeste 0 -- -- 100
2020-06-26 05:00:00 14.6 0 Calma 10 Sudeste 0 -- -- 100
2020-06-26 04:00:00 13.9 3 Sudeste 6 Sudeste 0 -- -- 100
2020-06-26 03:00:00 13.2 0 Calma 6 Oeste 0 -- -- 100
2020-06-26 02:00:00 13.9 2 Este 5 Sudeste 0 -- -- 99
2020-06-26 01:00:00 14.4 0 Calma 10 Sudoeste 0 -- -- 96
2020-06-26 00:00:00 15.9 0 Calma 10 Sur 0 -- -- 97
2020-06-25 23:00:00 17 0 Calma 21 Sudeste 0 -- -- 91
2020-06-25 22:00:00 18.2 3 Noroeste 14 Este 0 -- -- 92
2020-06-25 21:00:00 19.8 4 Sudeste 38 Sudeste 0 -- -- 88
2020-06-25 20:00:00 20.8 20 Este 32 Este 0 -- -- 86
2020-06-25 19:00:00 19.8 6 Norte 26 Sudoeste 0.4 -- -- 95
2020-06-25 18:00:00 20.6 8 Sudeste 14 Este 0.4 -- -- 85
2020-06-25 17:00:00 23.5 8 Este 19 Norte 0.2 -- -- 69
2020-06-25 16:00:00 23.7 9 Norte 22 Norte 0 -- -- 66
2020-06-25 15:00:00 22.2 9 Noroeste 20 Sudeste 0 -- -- 75
2020-06-25 14:00:00 20.2 12 Sur 37 Sudeste 0 -- -- 81
2020-06-25 13:00:00 19.9 25 Sudeste 41 Sudeste 0.2 -- -- 82
2020-06-25 12:00:00 20.3 16 Sudoeste 29 Sudoeste 0 -- -- 80
2020-06-25 11:00:00 21.3 9 Sudeste 17 Sudeste 0 -- -- 74
2020-06-25 10:00:00 21.6 4 Este 37 Este 0 -- -- 68
2020-06-25 09:00:00 19.6 23 Sudeste 37 Sudeste 0 -- -- 73
2020-06-25 08:00:00 17.3 12 Sudeste 20 Sudeste 0 -- -- 83
2020-06-25 07:00:00 16.1 3 Norte 14 Norte 0 -- -- 88
2020-06-25 06:00:00 15.7 3 Sudeste 9 Sudoeste 0 -- -- 89
2020-06-25 05:00:00 16.7 5 Sur 10 Sudeste 0 -- -- 85
2020-06-25 04:00:00 17.2 9 Sudoeste 13 Este 0 -- -- 83
2020-06-25 03:00:00 17.9 8 Sudeste 16 Sudeste 0 -- -- 79
2020-06-25 02:00:00 18.2 3 Sudeste 15 Sudeste 0 -- -- 78
2020-06-25 01:00:00 19.7 3 Sur 15 Este 0 -- -- 72
2020-06-25 00:00:00 20 12 Este 21 Este 0 -- -- 66
2020-06-24 23:00:00 20.2 0 Calma 16 Sudoeste 0 -- -- 73
2020-06-24 22:00:00 20.6 4 Sudeste 9 Sudeste 0 -- -- 68
2020-06-24 21:00:00 23.2 6 Nordeste 11 Sudoeste 0 -- -- 62
2020-06-24 20:00:00 25.2 2 Sudeste 14 Nordeste 0 -- -- 59
2020-06-24 19:00:00 26.8 4 Este 35 Oeste 0 -- -- 44
2020-06-24 18:00:00 27.8 22 Oeste 48 Oeste 0 -- -- 38
2020-06-24 17:00:00 32.5 18 Sudoeste 35 Sudoeste 0 -- -- 32
2020-06-24 16:00:00 31.5 11 Sudeste 20 Este 0 -- -- 40
2020-06-24 15:00:00 29.6 6 Sudoeste 18 Este 0 -- -- 42
2020-06-24 14:00:00 27.8 9 Este 19 Este 0 -- -- 53
2020-06-24 13:00:00 24.5 11 Este 16 Sudeste 0 -- -- 59
2020-06-24 12:00:00 23.9 4 Este 12 Sudoeste 0 -- -- 63
2020-06-24 11:00:00 23.3 7 Sur 19 Sur 0 -- -- 66
2020-06-24 10:00:00 19.3 4 Sudoeste 24 Este 0 -- -- 83
2020-06-24 09:00:00 21.1 9 Nordeste 23 Sudeste 0 -- -- 73
2020-06-24 08:00:00 15.9 0 Calma 8 Sudoeste 0 -- -- 82
2020-06-24 07:00:00 15.2 0 Calma 9 Sudeste 0 -- -- 84
2020-06-24 06:00:00 16.2 7 Sur 18 Sur 0 -- -- 75
2020-06-24 05:00:00 16.4 3 Sur 16 Sur 0 -- -- 74
2020-06-24 04:00:00 16.8 12 Sudeste 15 Sudeste 0 -- -- 71
2020-06-24 03:00:00 18.1 0 Calma 16 Sudoeste 0 -- -- 70
2020-06-24 02:00:00 18.9 9 Sur 19 Sudoeste 0 -- -- 66
2020-06-24 01:00:00 18.5 0 Calma 5 Noroeste 0 -- -- 79
2020-06-24 00:00:00 21 6 Sudoeste 19 Sudeste 0 -- -- 67
2020-06-23 23:00:00 22.5 4 Sur 20 Sudeste 0 -- -- 63
2020-06-23 22:00:00 23.9 13 Sudeste 19 Sudeste 0 -- -- 55
2020-06-23 21:00:00 27.6 9 Este 17 Este 0 -- -- 48
2020-06-23 20:00:00 29.9 12 Este 22 Este 0 -- -- 40
2020-06-23 19:00:00 31.1 13 Sudeste 24 Sudeste 0 -- -- 36
2020-06-23 18:00:00 31.8 13 Este 24 Este 0 -- -- 35
2020-06-23 17:00:00 31.7 12 Este 19 Este 0 -- -- 34
2020-06-23 16:00:00 30.7 10 Sudeste 23 Este 0 -- -- 36
2020-06-23 15:00:00 29.7 8 Sudeste 18 Este 0 -- -- 37
2020-06-23 14:00:00 28.2 9 Este 21 Este 0 -- -- 38
2020-06-23 13:00:00 26.7 8 Sudeste 20 Sudeste 0 -- -- 48
2020-06-23 12:00:00 25.1 6 Sudeste 17 Este 0 -- -- 51
2020-06-23 11:00:00 22.4 5 Nordeste 13 Este 0 -- -- 60
2020-06-23 10:00:00 18.9 4 Norte 7 Norte 0 -- -- 74
2020-06-23 09:00:00 15.9 3 Oeste 7 Sudoeste 0 -- -- 83
2020-06-23 08:00:00 12.7 5 Sur 12 Sudeste 0 -- -- 92
2020-06-23 07:00:00 9.8 3 Sudoeste 4 Sudoeste 0 -- -- 98
2020-06-23 06:00:00 10.5 0 Calma 10 Sudoeste 0 -- -- 97
2020-06-23 05:00:00 11.4 3 Sudoeste 13 Sudoeste 0 -- -- 96
2020-06-23 04:00:00 12.4 5 Sudoeste 10 Sudoeste 0 -- -- 95
2020-06-23 03:00:00 12.6 3 Sudoeste 9 Sudoeste 0 -- -- 96
2020-06-23 02:00:00 13.6 2 Sur 8 Sudoeste 0 -- -- 93
2020-06-23 01:00:00 14.4 5 Sudoeste 11 Oeste 0 -- -- 91
2020-06-23 00:00:00 15.4 5 Sudoeste 13 Sudeste 0 -- -- 86
2020-06-22 23:00:00 17 4 Sudeste 19 Este 0 -- -- 80
2020-06-22 22:00:00 19.6 14 Este 21 Este 0 -- -- 71
2020-06-22 21:00:00 23.7 12 Este 22 Este 0 -- -- 57
2020-06-22 20:00:00 25.8 15 Este 25 Este 0 -- -- 50
2020-06-22 19:00:00 26.7 16 Este 26 Este 0 -- -- 49
2020-06-22 18:00:00 27.3 16 Este 30 Este 0 -- -- 44
2020-06-22 17:00:00 27.5 12 Este 24 Este 0 -- -- 39
2020-06-22 16:00:00 27.1 11 Este 23 Este 0 -- -- 39
2020-06-22 15:00:00 26 11 Nordeste 21 Este 0 -- -- 43
2020-06-22 14:00:00 24.9 7 Este 18 Este 0 -- -- 42
2020-06-22 13:00:00 23.5 9 Nordeste 19 Este 0 -- -- 39
2020-06-22 12:00:00 21.9 7 Sudeste 18 Este 0 -- -- 56
2020-06-22 11:00:00 19.9 7 Este 17 Este 0 -- -- 70
2020-06-22 10:00:00 18.3 9 Este 17 Este 0 -- -- 78
2020-06-22 09:00:00 16.7 8 Este 14 Este 0 -- -- 83
2020-06-22 08:00:00 15.1 8 Este 13 Este 0 -- -- 90
2020-06-22 07:00:00 14.6 8 Este 14 Este 0 -- -- 90
2020-06-22 06:00:00 14.5 6 Este 13 Este 0 -- -- 94
2020-06-22 05:00:00 14.4 4 Este 18 Sudeste 0 -- -- 96
2020-06-22 04:00:00 13.8 8 Sudeste 17 Sudeste 0 -- -- 98
2020-06-22 03:00:00 13.2 10 Sudeste 18 Sudeste 0 -- -- 96
2020-06-22 02:00:00 13.1 9 Sudeste 17 Sudeste 0 -- -- 95
2020-06-22 01:00:00 13.5 9 Sudeste 18 Sudeste 0 -- -- 93
2020-06-22 00:00:00 13.9 10 Sudeste 18 Este 0 -- -- 92
2020-06-21 23:00:00 14.8 14 Este 19 Este 0 -- -- 89
2020-06-21 22:00:00 16.9 13 Este 23 Nordeste 0 -- -- 81
2020-06-21 21:00:00 19.2 16 Nordeste 29 Nordeste 0 -- -- 73
2020-06-21 20:00:00 22.2 18 Nordeste 27 Nordeste 0 -- -- 65
2020-06-21 19:00:00 22.6 19 Nordeste 36 Nordeste 0 -- -- 61
2020-06-21 18:00:00 25.7 13 Nordeste 22 Este 0 -- -- 48
2020-06-21 17:00:00 26.8 12 Norte 21 Nordeste 0 -- -- 42
2020-06-21 16:00:00 26.5 6 Norte 17 Sudeste 0 -- -- 39
2020-06-21 15:00:00 25.7 6 Este 14 Este 0 -- -- 45
2020-06-21 14:00:00 24.6 4 Sudeste 16 Norte 0 -- -- 47
2020-06-21 13:00:00 23.5 6 Nordeste 17 Este 0 -- -- 52
2020-06-21 12:00:00 22.1 10 Nordeste 17 Nordeste 0 -- -- 58
2020-06-21 11:00:00 20.3 6 Nordeste 13 Este 0 -- -- 61
2020-06-21 10:00:00 17.8 4 Norte 9 Norte 0 -- -- 72
2020-06-21 09:00:00 15.5 0 Calma 6 Sudoeste 0 -- -- 82
2020-06-21 08:00:00 12.5 2 Sudoeste 12 Sudoeste 0 -- -- 94
2020-06-21 07:00:00 9.6 0 Calma 7 Sudoeste 0 -- -- 99
2020-06-21 06:00:00 10.2 0 Calma 9 Oeste 0 -- -- 97
2020-06-21 05:00:00 11.3 3 Sur 11 Sudeste 0 -- -- 94
2020-06-21 04:00:00 12.1 7 Sudoeste 14 Sudeste 0 -- -- 94
2020-06-21 03:00:00 12.1 3 Oeste 9 Sudoeste 0 -- -- 93
2020-06-21 02:00:00 13.1 4 Sudoeste 17 Sudeste 0 -- -- 92
2020-06-21 01:00:00 14.3 13 Sudeste 17 Este 0 -- -- 85
2020-06-21 00:00:00 15.2 5 Sudeste 21 Sudeste 0 -- -- 86
2020-06-20 23:00:00 15.5 5 Sudeste 13 Este 0 -- -- 86
2020-06-20 22:00:00 18.2 9 Este 22 Este 0 -- -- 79
2020-06-20 21:00:00 22.2 15 Este 26 Este 0 -- -- 65
2020-06-20 20:00:00 27.2 0 Calma 17 Noroeste 0 -- -- 34
2020-06-20 19:00:00 27.7 10 Noroeste 20 Noroeste 0 -- -- 33
2020-06-20 18:00:00 28 9 Oeste 23 Oeste 0 -- -- 33
2020-06-20 17:00:00 27.7 10 Oeste 24 Oeste 0 -- -- 35
2020-06-20 16:00:00 27 13 Sudoeste 22 Oeste 0 -- -- 36
2020-06-20 15:00:00 25.9 9 Norte 18 Oeste 0 -- -- 39
2020-06-20 14:00:00 23.7 7 Nordeste 15 Norte 0 -- -- 50
2020-06-20 13:00:00 22.3 5 Norte 13 Noroeste 0 -- -- 50
2020-06-20 12:00:00 20.2 3 Norte 10 Norte 0 -- -- 56
2020-06-20 11:00:00 18 4 Este 11 Noroeste 0 -- -- 62
2020-06-20 10:00:00 15.4 3 Norte 6 Noroeste 0 -- -- 79
2020-06-20 09:00:00 13.2 0 Calma 5 Sudoeste 0 -- -- 91
2020-06-20 08:00:00 10.1 3 Sudoeste 8 Sudoeste 0 -- -- 97
2020-06-20 07:00:00 7.5 2 Sur 7 Sudeste 0 -- -- 100
2020-06-20 06:00:00 7.6 0 Calma 4 Sudoeste 0 -- -- 97
2020-06-20 05:00:00 8.1 0 Calma 0 Calma 0 -- -- 97
2020-06-20 04:00:00 9.4 0 Calma 8 Sudoeste 0 -- -- 97
2020-06-20 03:00:00 10.1 2 Sudoeste 10 Sur 0 -- -- 96
2020-06-20 02:00:00 11.3 10 Sur 23 Sudeste 0 -- -- 95
2020-06-20 01:00:00 12 12 Sudeste 19 Sudeste 0 -- -- 95
2020-06-20 00:00:00 12.6 11 Sudeste 17 Este 0 -- -- 94
2020-06-19 23:00:00 13 10 Este 16 Nordeste 0 -- -- 92
2020-06-19 22:00:00 15.1 13 Nordeste 25 Este 0 -- -- 84
2020-06-19 21:00:00 18.5 17 Este 24 Este 0 -- -- 73
2020-06-19 20:00:00 20.7 18 Este 26 Este 0 -- -- 67
2020-06-19 19:00:00 22.4 20 Este 29 Este 0 -- -- 61
2020-06-19 18:00:00 26 10 Sudoeste 25 Sudoeste 0 -- -- 29
2020-06-19 17:00:00 25.7 15 Oeste 29 Oeste 0 -- -- 33
2020-06-19 16:00:00 24.8 12 Sudoeste 24 Oeste 0 -- -- 36
2020-06-19 15:00:00 23 4 Norte 15 Noroeste 0 -- -- 51
2020-06-19 14:00:00 21.9 6 Oeste 15 Norte 0 -- -- 60
2020-06-19 13:00:00 20 6 Oeste 15 Sudeste 0 -- -- 62
2020-06-19 12:00:00 18.2 6 Nordeste 14 Norte 0 -- -- 65
2020-06-19 11:00:00 16.8 4 Norte 17 Nordeste 0 -- -- 68
2020-06-19 10:00:00 15.3 5 Este 15 Sudeste 0 -- -- 72
2020-06-19 09:00:00 13.5 2 Este 6 Sudeste 0 -- -- 83
2020-06-19 08:00:00 10.4 2 Sudoeste 8 Sudoeste 0 -- -- 97
2020-06-19 07:00:00 8.1 5 Sudoeste 8 Sudoeste 0 -- -- 99
2020-06-19 06:00:00 8.2 0 Calma 5 Sudeste 0 -- -- 97
2020-06-19 05:00:00 9.5 0 Calma 10 Este 0 -- -- 94
2020-06-19 04:00:00 11.4 0 Calma 6 Sudoeste 0 -- -- 94
2020-06-19 03:00:00 11.4 4 Sudoeste 12 Sudeste 0 -- -- 94
2020-06-19 02:00:00 11.5 7 Sudeste 16 Este 0 -- -- 91
2020-06-19 01:00:00 11.4 9 Este 17 Este 0 -- -- 91
2020-06-19 00:00:00 10.7 8 Sudeste 17 Sudeste 0 -- -- 95
2020-06-18 23:00:00 11.2 11 Sudeste 15 Sudeste 0 -- -- 93
2020-06-18 22:00:00 12.8 10 Este 22 Nordeste 0 -- -- 88
2020-06-18 21:00:00 15.5 17 Nordeste 27 Este 0 -- -- 78
2020-06-18 20:00:00 17.7 19 Nordeste 27 Nordeste 0 -- -- 72
2020-06-18 19:00:00 19.4 18 Este 27 Este 0 -- -- 63
2020-06-18 18:00:00 19.8 4 Este 17 Este 0 -- -- 57
2020-06-18 17:00:00 20.4 10 Este 18 Este 0 -- -- 59
2020-06-18 16:00:00 19.1 6 Este 17 Noroeste 0 -- -- 58
2020-06-18 15:00:00 18.2 6 Norte 17 Norte 0 -- -- 65
2020-06-18 14:00:00 16.1 9 Nordeste 19 Nordeste 0 -- -- 74
2020-06-18 13:00:00 15.1 7 Este 15 Este 0 -- -- 81
2020-06-18 12:00:00 14 7 Nordeste 17 Nordeste 0 -- -- 84
2020-06-18 11:00:00 13.6 9 Este 17 Este 0 -- -- 86
2020-06-18 10:00:00 11.9 9 Este 13 Este 0 -- -- 93
2020-06-18 09:00:00 11.7 8 Este 14 Este 0 -- -- 93
2020-06-18 08:00:00 10.4 5 Este 10 Este 0 -- -- 99
2020-06-18 07:00:00 9.9 0 Calma 9 Sudeste 2.2 -- -- 100
2020-06-18 06:00:00 10 4 Norte 12 Nordeste 2.6 -- -- 100
2020-06-18 05:00:00 10.5 6 Norte 12 Este 0.2 -- -- 98
2020-06-18 04:00:00 10.6 3 Nordeste 9 Este 0 -- -- 98
2020-06-18 03:00:00 10.6 4 Nordeste 16 Este 0.2 -- -- 98
2020-06-18 02:00:00 10.6 10 Este 18 Sudeste 0.2 -- -- 96
2020-06-18 01:00:00 11 8 Este 13 Este 0 -- -- 94
2020-06-18 00:00:00 11.3 5 Este 17 Este 0 -- -- 94
2020-06-17 23:00:00 11.7 9 Este 17 Este 0 -- -- 92
2020-06-17 22:00:00 12.2 12 Este 20 Este 0 -- -- 91
2020-06-17 21:00:00 13.7 13 Este 21 Este 0 -- -- 85
2020-06-17 20:00:00 14.7 17 Nordeste 24 Nordeste 0 -- -- 76
2020-06-17 19:00:00 16.3 12 Nordeste 21 Nordeste 0 -- -- 67
2020-06-17 18:00:00 17.6 4 Nordeste 21 Nordeste 0 -- -- 62
2020-06-17 17:00:00 18 10 Norte 24 Noroeste 0 -- -- 62
2020-06-17 16:00:00 18.5 7 Noroeste 14 Norte 0 -- -- 55
2020-06-17 15:00:00 15.7 8 Oeste 15 Norte 0 -- -- 71
2020-06-17 14:00:00 17.7 4 Sudoeste 14 Norte 0 -- -- 58
2020-06-17 13:00:00 15.9 3 Sudeste 13 Norte 0 -- -- 65
2020-06-17 12:00:00 14.9 4 Norte 14 Norte 0 -- -- 72
2020-06-17 11:00:00 13.4 4 Noroeste 12 Noroeste 0 -- -- 80
2020-06-17 10:00:00 13.4 3 Este 7 Este 0 -- -- 81
2020-06-17 09:00:00 11.7 3 Noroeste 8 Sudoeste 0 -- -- 89
2020-06-17 08:00:00 10.8 5 Sudoeste 8 Sudoeste 0 -- -- 100
2020-06-17 07:00:00 10.4 0 Calma -- -- 0 -- -- 100
2020-06-17 06:00:00 10.5 0 Calma -- -- 0.2 -- -- 99
2020-06-17 05:00:00 10.5 0 Calma -- -- 0 -- -- 99
2020-06-17 04:00:00 10.3 0 Calma 4 Sudoeste 0 -- -- 100
2020-06-17 03:00:00 10.9 0 Calma 4 Sudeste 0 -- -- 98
2020-06-17 02:00:00 11.2 2 Sudeste 6 Noroeste 0.4 -- -- 98
2020-06-17 01:00:00 11.5 0 Calma 4 Oeste 0 -- -- 96
2020-06-17 00:00:00 11.5 0 Calma 6 Noroeste 0 -- -- 94
2020-06-16 23:00:00 11.6 6 Nordeste 10 Nordeste 0 -- -- 96
2020-06-16 22:00:00 11.9 6 Nordeste 16 Este 0 -- -- 97
2020-06-16 21:00:00 12.1 9 Este 19 Este 0 -- -- 97
2020-06-16 20:00:00 12.4 14 Este 23 Este 4.6 -- -- 96
2020-06-16 19:00:00 14.1 5 Sudeste 21 Nordeste 0.2 -- -- 90
2020-06-16 18:00:00 14.9 10 Norte 20 Norte 0 -- -- 89
2020-06-16 17:00:00 13.7 10 Norte 45 Nordeste 1.8 -- -- 91
2020-06-16 16:00:00 20.7 24 Oeste 44 Oeste 0 -- -- 51
2020-06-16 15:00:00 19.6 23 Sudoeste 39 Sudoeste 0 -- -- 55
2020-06-16 14:00:00 19.1 18 Oeste 31 Oeste 0 -- -- 59
2020-06-16 13:00:00 18.8 20 Oeste 28 Oeste 0 -- -- 62
2020-06-16 12:00:00 16.5 13 Oeste 24 Sudoeste 0 -- -- 71
2020-06-16 11:00:00 15.7 5 Sudoeste 12 Sudoeste 0 -- -- 77
2020-06-16 10:00:00 14.2 3 Norte 7 Oeste 0 -- -- 84
2020-06-16 09:00:00 12.7 2 Este 7 Norte 0 -- -- 92
2020-06-16 08:00:00 11.3 0 Calma 6 Sudeste 0 -- -- 97
2020-06-16 07:00:00 10.4 3 Sur 5 Sudoeste 0 -- -- 97
2020-06-16 06:00:00 11.2 4 Sudoeste 9 Sur 0 -- -- 96
2020-06-16 05:00:00 11.5 3 Sudoeste 6 Sudoeste 0 -- -- 94
2020-06-16 04:00:00 11.5 0 Calma 7 Sudeste 0 -- -- 94
2020-06-16 03:00:00 11.3 5 Sudeste 13 Sudeste 0 -- -- 93
2020-06-16 02:00:00 11.3 2 Sudeste 10 Este 0 -- -- 93
2020-06-16 01:00:00 11.8 6 Este 14 Sudeste 0 -- -- 90
2020-06-16 00:00:00 12.1 9 Este 15 Este 0 -- -- 91
2020-06-15 23:00:00 13.1 7 Este 15 Nordeste 0 -- -- 87
2020-06-15 22:00:00 14.5 12 Nordeste 24 Este 0 -- -- 82
2020-06-15 21:00:00 16.8 15 Este 29 Este 0 -- -- 72
2020-06-15 20:00:00 20.4 10 Oeste 22 Oeste 0 -- -- 51
2020-06-15 19:00:00 20.6 14 Oeste 22 Oeste 0 -- -- 50
2020-06-15 18:00:00 20.1 10 Oeste 26 Oeste 0 -- -- 51
2020-06-15 17:00:00 20.8 11 Oeste 26 Oeste 0 -- -- 50
2020-06-15 16:00:00 20.2 15 Oeste 29 Oeste 0 -- -- 55
2020-06-15 15:00:00 19.1 15 Oeste 28 Oeste 0 -- -- 57
2020-06-15 14:00:00 18.8 16 Sudoeste 25 Sudoeste 0 -- -- 58
2020-06-15 13:00:00 18.5 13 Sudoeste 23 Oeste 0 -- -- 59
2020-06-15 12:00:00 18.1 14 Oeste 27 Sudoeste 0 -- -- 60
2020-06-15 11:00:00 17.2 15 Oeste 26 Oeste 0 -- -- 63
2020-06-15 10:00:00 14.8 4 Oeste 12 Sudoeste 0 -- -- 78
2020-06-15 09:00:00 11.5 0 Calma 8 Sudoeste 0 -- -- 91
2020-06-15 08:00:00 10.6 5 Sudoeste 11 Sudoeste 0 -- -- 94
2020-06-15 07:00:00 9.3 3 Sur 6 Sur 0 -- -- 95
2020-06-15 06:00:00 9.9 3 Sur 6 Sur 0 -- -- 94
2020-06-15 05:00:00 10 3 Sur 8 Sur 0 -- -- 95
2020-06-15 04:00:00 10.8 4 Sur 12 Sudeste 0 -- -- 92
2020-06-15 03:00:00 11.5 0 Calma 11 Sudeste 0 -- -- 88
2020-06-15 02:00:00 11.7 8 Sudeste 13 Sudeste 0 -- -- 86
2020-06-15 01:00:00 12 6 Sudeste 9 Sudeste 0 -- -- 87
2020-06-15 00:00:00 12.5 5 Sudeste 10 Sudeste 0 -- -- 84
2020-06-14 23:00:00 13 6 Este 19 Este 0 -- -- 82
2020-06-14 22:00:00 14.2 11 Este 27 Este 0 -- -- 80
2020-06-14 21:00:00 17.5 3 Sudoeste 16 Oeste 0 -- -- 64
2020-06-14 20:00:00 18.3 8 Oeste 15 Oeste 0 -- -- 55
2020-06-14 19:00:00 17.9 11 Oeste 22 Oeste 0 -- -- 54
2020-06-14 18:00:00 18.3 12 Oeste 27 Sudoeste 0 -- -- 53
2020-06-14 17:00:00 18.7 13 Oeste 32 Sudoeste 0 -- -- 53
2020-06-14 16:00:00 18.9 17 Oeste 35 Sudoeste 0 -- -- 51
2020-06-14 15:00:00 18.9 19 Oeste 38 Sudoeste 0 -- -- 51
2020-06-14 14:00:00 18 24 Oeste 39 Sudoeste 0 -- -- 54
2020-06-14 13:00:00 17.8 22 Sudoeste 38 Sudoeste 0 -- -- 55
2020-06-14 12:00:00 16.5 17 Oeste 35 Oeste 0 -- -- 61
2020-06-14 11:00:00 16 16 Sudoeste 25 Sudoeste 0 -- -- 65
2020-06-14 10:00:00 14.1 4 Norte 9 Norte 0 -- -- 78
2020-06-14 09:00:00 12.6 0 Calma 0 Calma 0 -- -- 81
2020-06-14 08:00:00 10.1 0 Calma -- -- 0 -- -- 94
2020-06-14 07:00:00 8 0 Calma 2 Este 0 -- -- 100
2020-06-14 06:00:00 7.1 0 Calma 6 Noroeste 0 -- -- 97
2020-06-14 05:00:00 8.4 3 Sudoeste 9 Sur 0 -- -- 92
2020-06-14 04:00:00 9 4 Sur 15 Sudoeste 0 -- -- 92
2020-06-14 03:00:00 9 8 Sur 13 Sudoeste 0 -- -- 93
2020-06-14 02:00:00 9.7 6 Sur 14 Sudoeste 0 -- -- 91
2020-06-14 01:00:00 11.2 5 Sur 10 Sur 0 -- -- 87
2020-06-14 00:00:00 13.3 8 Sudoeste 13 Sudoeste 0 -- -- 79
2020-06-13 23:00:00 13.9 6 Sudoeste 14 Sudoeste 0 -- -- 76
2020-06-13 22:00:00 14.4 8 Sudoeste 24 Oeste 0 -- -- 70
2020-06-13 21:00:00 16.3 10 Oeste 27 Oeste 0 -- -- 62
2020-06-13 20:00:00 16.9 9 Sudoeste 31 Sudoeste 0 -- -- 62
2020-06-13 19:00:00 16.8 21 Sudoeste 35 Sudoeste 0 -- -- 57
2020-06-13 18:00:00 17.6 22 Sudoeste 40 Sudoeste 0 -- -- 58
2020-06-13 17:00:00 17.9 22 Sudoeste 37 Oeste 0 -- -- 55
2020-06-13 16:00:00 17.9 28 Sudoeste 42 Sudoeste 0 -- -- 58
2020-06-13 15:00:00 17 22 Oeste 38 Sudoeste 0 -- -- 58
2020-06-13 14:00:00 17.1 26 Oeste 41 Sudoeste 0 -- -- 57
2020-06-13 13:00:00 15.3 25 Sudoeste 44 Sudoeste 0 -- -- 65
2020-06-13 12:00:00 15.1 24 Sudoeste 44 Oeste 0 -- -- 68
2020-06-13 11:00:00 14.1 22 Oeste 37 Sudoeste 0 -- -- 74
2020-06-13 10:00:00 11.4 15 Sudoeste 28 Sudoeste 0 -- -- 83
2020-06-13 09:00:00 11 18 Sudoeste 33 Sudoeste 0 -- -- 83
2020-06-13 08:00:00 10.6 13 Sudoeste 28 Sudoeste 0 -- -- 86
2020-06-13 07:00:00 10.4 18 Oeste 27 Sudoeste 0 -- -- 85
2020-06-13 06:00:00 10.4 12 Sudoeste 26 Sudoeste 0 -- -- 88
2020-06-13 05:00:00 10.4 16 Sudoeste 27 Sudoeste 0 -- -- 89
2020-06-13 04:00:00 10.7 15 Sudoeste 29 Sudoeste 0 -- -- 88
2020-06-13 03:00:00 10.2 12 Sudoeste 31 Sudoeste 0 -- -- 91
2020-06-13 02:00:00 9.7 17 Sudoeste 29 Sudoeste 0 -- -- 92
2020-06-13 01:00:00 9.4 17 Sudoeste 37 Sudoeste 0 -- -- 90
2020-06-13 00:00:00 10.4 24 Sudoeste 38 Sudoeste 0 -- -- 87
2020-06-12 23:00:00 10.9 20 Sudoeste 33 Sudoeste 0 -- -- 88
2020-06-12 22:00:00 11.3 18 Sudoeste 41 Sudoeste 0 -- -- 88
2020-06-12 21:00:00 12.5 24 Sudoeste 44 Oeste 0 -- -- 79
2020-06-12 20:00:00 13.4 23 Sudoeste 37 Sudoeste 0 -- -- 81
2020-06-12 19:00:00 13.7 18 Sudoeste 34 Sudoeste 0 -- -- 83
2020-06-12 18:00:00 12.7 10 Sudoeste 32 Sudoeste 0.6 -- -- 92
2020-06-12 17:00:00 11.8 15 Oeste 45 Oeste 0.4 -- -- 88
2020-06-12 16:00:00 13 20 Oeste 47 Oeste 0.2 -- -- 76
2020-06-12 15:00:00 15.2 27 Sudoeste 45 Sudoeste 0 -- -- 58
2020-06-12 14:00:00 15.8 30 Sudoeste 48 Oeste 0 -- -- 62
2020-06-12 13:00:00 15.9 32 Oeste 55 Sudoeste 0 -- -- 55
2020-06-12 12:00:00 14.3 30 Sudoeste 48 Sudoeste 0 -- -- 65
2020-06-12 11:00:00 13.2 26 Sudoeste 46 Sudoeste 0 -- -- 71
2020-06-12 10:00:00 11 22 Sudoeste 40 Sudoeste 0 -- -- 81
2020-06-12 09:00:00 9.8 18 Sudoeste 34 Sudoeste 0 -- -- 86
2020-06-12 08:00:00 8.9 21 Sudoeste 45 Sudoeste 0 -- -- 86
2020-06-12 07:00:00 8.2 30 Sudoeste 48 Sudoeste 0 -- -- 86
2020-06-12 06:00:00 7.9 21 Sudoeste 45 Sudoeste 0 -- -- 88
2020-06-12 05:00:00 7.3 23 Sudoeste 42 Sudoeste 0 -- -- 88
2020-06-12 04:00:00 7.2 21 Sudoeste 40 Sudoeste 0 -- -- 89
2020-06-12 03:00:00 6.6 16 Sudoeste 27 Sudoeste 0 -- -- 91
2020-06-12 02:00:00 6.4 12 Sudoeste 23 Sudoeste 0 -- -- 92
2020-06-12 01:00:00 6.9 10 Sudoeste 22 Sudeste 0 -- -- 99
2020-06-12 00:00:00 7.9 13 Sudeste 22 Sudeste 0 -- -- 98
2020-06-11 23:00:00 8.7 10 Sudeste 18 Sudeste 0 -- -- 99
2020-06-11 22:00:00 8.8 9 Sudeste 17 Este 0.8 -- -- 99
2020-06-11 21:00:00 9.6 9 Nordeste 17 Este 0 -- -- 98
2020-06-11 20:00:00 10.1 12 Este 19 Este 4 -- -- 100
2020-06-11 19:00:00 10.9 15 Este 24 Nordeste 2.6 -- -- 97
2020-06-11 18:00:00 12.4 17 Nordeste 26 Nordeste 1 -- -- 95
2020-06-11 17:00:00 12.6 8 Nordeste 19 Este 2.2 -- -- 93
2020-06-11 16:00:00 16.1 9 Norte 48 Sudoeste 0 -- -- 68
2020-06-11 15:00:00 19.6 26 Sudoeste 50 Sudoeste 0 -- -- 51
2020-06-11 14:00:00 18.3 31 Sudoeste 46 Sudoeste 0 -- -- 61
2020-06-11 13:00:00 17.3 17 Sudoeste 38 Sudoeste 0 -- -- 67
2020-06-11 12:00:00 16 23 Sudoeste 35 Sudoeste 0 -- -- 71
2020-06-11 11:00:00 14.2 12 Sudoeste 27 Sudoeste 0 -- -- 79
2020-06-11 10:00:00 13.2 14 Sudoeste 23 Sudoeste 0 -- -- 87
2020-06-11 09:00:00 11.7 13 Sudoeste 20 Sudoeste 0.2 -- -- 95
2020-06-11 08:00:00 9.9 4 Sudoeste 8 Sudoeste 0 -- -- 100
2020-06-11 07:00:00 8.8 0 Calma 8 Sudoeste 0 -- -- 100
2020-06-11 06:00:00 8.7 4 Sur 8 Sur 0 -- -- 100
2020-06-11 05:00:00 8.5 2 Sur 10 Sur 0 -- -- 99
2020-06-11 04:00:00 8.8 6 Sur 10 Sur 0 -- -- 98
2020-06-11 03:00:00 9.8 7 Sudeste 12 Sudeste 0 -- -- 96
2020-06-11 02:00:00 10.5 3 Sudoeste 7 Sudeste 0 -- -- 95
2020-06-11 01:00:00 10.9 3 Sur 9 Sudeste 0 -- -- 94
2020-06-11 00:00:00 11.2 7 Este 10 Este 0 -- -- 92
2020-06-10 23:00:00 11.8 5 Este 10 Este 0 -- -- 88
2020-06-10 22:00:00 12.5 2 Sudeste 18 Este 0 -- -- 86
2020-06-10 21:00:00 13.3 8 Este 20 Este 0 -- -- 83
2020-06-10 20:00:00 14.6 11 Este 22 Este 0 -- -- 76
2020-06-10 19:00:00 15.6 17 Este 26 Este 0 -- -- 72
2020-06-10 18:00:00 16.5 13 Este 21 Este 0 -- -- 67
2020-06-10 17:00:00 17 9 Nordeste 15 Nordeste 0 -- -- 63
2020-06-10 16:00:00 18 8 Nordeste 18 Este 0 -- -- 59
2020-06-10 15:00:00 17.1 6 Nordeste 18 Nordeste 0 -- -- 61
2020-06-10 14:00:00 17.8 5 Sudoeste 14 Norte 0 -- -- 54
2020-06-10 13:00:00 16.6 9 Este 15 Este 0 -- -- 69
2020-06-10 12:00:00 15.2 5 Norte 13 Norte 0 -- -- 70
2020-06-10 11:00:00 13.4 2 Este 6 Norte 0 -- -- 75
2020-06-10 10:00:00 10 2 Norte 5 Noroeste 0 -- -- 88
2020-06-10 09:00:00 7.8 0 Calma 5 Sudoeste 0 -- -- 98
2020-06-10 08:00:00 5.5 3 Sudoeste 10 Sudoeste 0 -- -- 100
2020-06-10 07:00:00 4.2 3 Oeste 8 Sudoeste 0 -- -- 100
2020-06-10 06:00:00 3.4 0 Calma 3 Sudoeste 0 -- -- 100
2020-06-10 05:00:00 4.2 0 Calma 5 Sudoeste 0 -- -- 98
2020-06-10 04:00:00 5 0 Calma 5 Sudoeste 0 -- -- 100
2020-06-10 03:00:00 5.1 2 Sudoeste 9 Sudoeste 0 -- -- 98
2020-06-10 02:00:00 5.5 0 Calma 8 Sudoeste 0 -- -- 96
2020-06-10 01:00:00 6.2 3 Sur 10 Sur 0 -- -- 96
2020-06-10 00:00:00 6.7 0 Calma 3 Noroeste 0 -- -- 95
2020-06-09 23:00:00 7.7 0 Calma 9 Sudeste 0 -- -- 89
2020-06-09 22:00:00 10.4 0 Calma 14 Norte 0 -- -- 81
2020-06-09 21:00:00 13 9 Norte 19 Norte 0 -- -- 71
2020-06-09 20:00:00 14.4 10 Norte 25 Norte 0 -- -- 65
2020-06-09 19:00:00 14.5 14 Norte 23 Norte 0 -- -- 64
2020-06-09 18:00:00 14.5 15 Norte 30 Norte 0 -- -- 63
2020-06-09 17:00:00 15.1 19 Nordeste 28 Nordeste 0 -- -- 65
2020-06-09 16:00:00 14.2 13 Norte 22 Norte 0 -- -- 68
2020-06-09 15:00:00 13.7 14 Nordeste 25 Nordeste 0 -- -- 68
2020-06-09 14:00:00 14.9 7 Norte 24 Noroeste 0 -- -- 59
2020-06-09 13:00:00 13.3 7 Norte 17 Norte 0 -- -- 73
2020-06-09 12:00:00 12 8 Noroeste 15 Noroeste 0 -- -- 79
2020-06-09 11:00:00 11.5 5 Oeste 12 Oeste 0 -- -- 81
2020-06-09 10:00:00 10 6 Noroeste 10 Oeste 0 -- -- 91
2020-06-09 09:00:00 8 3 Sudoeste 9 Sudoeste 0 -- -- 97
2020-06-09 08:00:00 6.1 2 Sur 10 Sudoeste 0 -- -- 100
2020-06-09 07:00:00 4.4 5 Sudoeste 13 Sudoeste 0 -- -- 99
2020-06-09 06:00:00 5 5 Sur 13 Sudeste 0 -- -- 97
2020-06-09 05:00:00 5.2 3 Sur 15 Sudoeste 0 -- -- 97
2020-06-09 04:00:00 5.8 2 Sudoeste 10 Sudoeste 0 -- -- 100
2020-06-09 03:00:00 4.8 7 Sudoeste 12 Sudeste 0 -- -- 97
2020-06-09 02:00:00 5.8 3 Sudeste 9 Sudoeste 0 -- -- 95
2020-06-09 01:00:00 7.1 3 Sur 10 Norte 0 -- -- 94
2020-06-09 00:00:00 7.3 3 Este 4 Este 0 -- -- 97
2020-06-08 23:00:00 7.9 4 Norte 10 Norte 0 -- -- 91
2020-06-08 22:00:00 9.5 6 Norte 19 Norte 0 -- -- 87
2020-06-08 21:00:00 11.7 12 Norte 26 Noroeste 0 -- -- 73
2020-06-08 20:00:00 13.5 19 Norte 33 Norte 0 -- -- 65
2020-06-08 19:00:00 14.3 16 Norte 33 Norte 0 -- -- 64
2020-06-08 18:00:00 12.3 13 Norte 36 Noroeste 0 -- -- 80
2020-06-08 17:00:00 12.2 18 Noroeste 42 Noroeste 0.2 -- -- 84
2020-06-08 16:00:00 13.3 6 Norte 25 Noroeste 0.2 -- -- 88
2020-06-08 15:00:00 12.4 9 Noroeste 18 Noroeste 0 -- -- 82
2020-06-08 14:00:00 13.7 10 Norte 24 Norte 0 -- -- 71
2020-06-08 13:00:00 12.3 8 Noroeste 22 Norte 0 -- -- 76
2020-06-08 12:00:00 12.6 9 Noroeste 17 Noroeste 0 -- -- 79
2020-06-08 11:00:00 11.2 11 Noroeste 18 Noroeste 0 -- -- 82
2020-06-08 10:00:00 10.9 4 Oeste 10 Oeste 0 -- -- 84
2020-06-08 09:00:00 8 4 Sur 13 Sur 0 -- -- 99
2020-06-08 08:00:00 5.6 5 Sur 10 Sur 0 -- -- 100
2020-06-08 07:00:00 4 6 Sur 13 Sudeste 0 -- -- 100
2020-06-08 06:00:00 3.6 3 Sur 12 Sudeste 0 -- -- 100
2020-06-08 05:00:00 4.3 6 Sudoeste 10 Sur 0 -- -- 100
2020-06-08 04:00:00 3.9 0 Calma 6 Oeste 0 -- -- 100
2020-06-08 03:00:00 3.5 2 Sudoeste 8 Sudoeste 0 -- -- 100
2020-06-08 02:00:00 4 0 Calma 5 Oeste 0 -- -- 98
2020-06-08 01:00:00 5.3 2 Oeste 6 Oeste 0 -- -- 97
2020-06-08 00:00:00 6.3 0 Calma 3 Nordeste 0 -- -- 98
2020-06-07 23:00:00 6.8 3 Este 10 Norte 0 -- -- 94
2020-06-07 22:00:00 9.1 11 Nordeste 24 Norte 0 -- -- 86
2020-06-07 21:00:00 10.5 10 Nordeste 21 Norte 0 -- -- 83
2020-06-07 20:00:00 11.4 10 Norte 28 Nordeste 0 -- -- 75
2020-06-07 19:00:00 11.3 13 Norte 23 Norte 0 -- -- 81
2020-06-07 18:00:00 11.4 9 Nordeste 29 Nordeste 0 -- -- 83
2020-06-07 17:00:00 10.4 17 Nordeste 24 Nordeste 0 -- -- 89
2020-06-07 16:00:00 11.1 12 Nordeste 20 Nordeste 0 -- -- 90
2020-06-07 15:00:00 10.2 10 Nordeste 18 Nordeste 0.8 -- -- 91
2020-06-07 14:00:00 9.1 12 Nordeste 20 Nordeste 2 -- -- 97
2020-06-07 13:00:00 9.3 13 Nordeste 22 Nordeste 0.4 -- -- 95
2020-06-07 12:00:00 9.2 14 Nordeste 22 Norte 0 -- -- 98
2020-06-07 11:00:00 8.9 9 Norte 18 Nordeste 0.4 -- -- 99
2020-06-07 10:00:00 9.4 10 Nordeste 19 Nordeste 0 -- -- 100
2020-06-07 09:00:00 9.4 7 Nordeste 12 Nordeste 0 -- -- 100
2020-06-07 08:00:00 9.3 5 Nordeste 13 Este 0.8 -- -- 100
2020-06-07 07:00:00 9.6 5 Nordeste 14 Nordeste 0.6 -- -- 100
2020-06-07 06:00:00 9.9 6 Norte 12 Nordeste 1.2 -- -- 100
2020-06-07 05:00:00 10.5 8 Nordeste 17 Este 3.4 -- -- 100
2020-06-07 04:00:00 11.8 0 Calma 8 Sudeste 0.6 -- -- 99
2020-06-07 03:00:00 12 4 Sudeste 8 Sudeste 0 -- -- 99
2020-06-07 02:00:00 11.9 4 Sudeste 13 Sudeste 0 -- -- 100
2020-06-07 01:00:00 12 6 Sudeste 10 Sudeste 0 -- -- 99
2020-06-07 00:00:00 12.4 0 Calma 5 Sudeste 0.2 -- -- 100
2020-06-06 23:00:00 12.3 0 Calma 9 Nordeste 0.4 -- -- 100
2020-06-06 22:00:00 12.3 4 Este 16 Este 0.2 -- -- 99
2020-06-06 21:00:00 12.5 10 Nordeste 14 Norte 1 -- -- 99
2020-06-06 20:00:00 13.5 11 Nordeste 21 Nordeste 2.4 -- -- 99
2020-06-06 19:00:00 14.2 13 Este 21 Este 3 -- -- 97
2020-06-06 18:00:00 15.3 11 Nordeste 28 Nordeste 0.6 -- -- 91
2020-06-06 17:00:00 18.2 18 Nordeste 34 Este 0 -- -- 76
2020-06-06 16:00:00 20.6 8 Nordeste 26 Nordeste 0.2 -- -- 73
2020-06-06 15:00:00 21.2 10 Nordeste 21 Nordeste 0 -- -- 69
2020-06-06 14:00:00 18.7 8 Nordeste 20 Norte 0.2 -- -- 76
2020-06-06 13:00:00 16.6 6 Este 13 Este 0 -- -- 82
2020-06-06 12:00:00 15 7 Este 10 Este 0 -- -- 88
2020-06-06 11:00:00 13.7 5 Este 10 Este 0 -- -- 92
2020-06-06 10:00:00 12.9 0 Calma 12 Nordeste 0 -- -- 95
2020-06-06 09:00:00 12.4 5 Nordeste 12 Nordeste 0 -- -- 97
2020-06-06 08:00:00 12.2 5 Este 11 Este 0 -- -- 99
2020-06-06 07:00:00 12.1 5 Sudeste 10 Sudeste 0 -- -- 99
2020-06-06 06:00:00 11.7 4 Este 7 Este 0 -- -- 100
2020-06-06 05:00:00 10.9 2 Nordeste 7 Sudeste 0 -- -- 100
2020-06-06 04:00:00 10.7 3 Sur 7 Sur 0 -- -- 98
2020-06-06 03:00:00 11.2 4 Sur 12 Sudeste 0 -- -- 98
2020-06-06 02:00:00 11.5 3 Sur 10 Sur 0 -- -- 97
2020-06-06 01:00:00 12.2 6 Sudeste 19 Sudeste 0 -- -- 96
2020-06-06 00:00:00 12.8 3 Sur 21 Sudeste 0 -- -- 93
2020-06-05 23:00:00 13.8 10 Sudeste 19 Sudeste 0 -- -- 91
2020-06-05 22:00:00 15.5 13 Este 23 Este 0 -- -- 84
2020-06-05 21:00:00 18.5 18 Este 26 Este 0 -- -- 73
2020-06-05 20:00:00 24.2 7 Oeste 16 Noroeste 0 -- -- 45
2020-06-05 19:00:00 24.2 9 Oeste 23 Oeste 0 -- -- 44
2020-06-05 18:00:00 24 12 Oeste 32 Oeste 0 -- -- 43
2020-06-05 17:00:00 23.6 12 Oeste 26 Oeste 0 -- -- 44
2020-06-05 16:00:00 22.7 11 Oeste 31 Oeste 0 -- -- 50
2020-06-05 15:00:00 21.5 15 Oeste 30 Oeste 0 -- -- 47
2020-06-05 14:00:00 20.4 15 Oeste 29 Sudoeste 0 -- -- 50
2020-06-05 13:00:00 19 11 Oeste 24 Oeste 0 -- -- 59
2020-06-05 12:00:00 16.9 10 Oeste 18 Noroeste 0 -- -- 66
2020-06-05 11:00:00 15.1 8 Oeste 17 Noroeste 0 -- -- 69
2020-06-05 10:00:00 12.9 4 Norte 13 Oeste 0 -- -- 78
2020-06-05 09:00:00 11.4 6 Noroeste 13 Noroeste 0 -- -- 82
2020-06-05 08:00:00 9.3 0 Calma 10 Sudeste 0 -- -- 91
2020-06-05 07:00:00 6.3 3 Sur 10 Sudoeste 0 -- -- 97
2020-06-05 06:00:00 6.7 5 Sudoeste 9 Sudoeste 0 -- -- 96
2020-06-05 05:00:00 8.3 5 Sudoeste 9 Sudoeste 0 -- -- 90
2020-06-05 04:00:00 10.4 4 Oeste 13 Oeste 0 -- -- 85
2020-06-05 03:00:00 10.5 7 Noroeste 17 Noroeste 0 -- -- 87
2020-06-05 02:00:00 10.8 9 Noroeste 24 Oeste 0 -- -- 88
2020-06-05 01:00:00 9.7 6 Oeste 10 Oeste 0 -- -- 91
2020-06-05 00:00:00 11.2 7 Noroeste 13 Oeste 0 -- -- 86
2020-06-04 23:00:00 11.4 6 Oeste 21 Noroeste 0 -- -- 85
2020-06-04 22:00:00 12.1 10 Oeste 22 Oeste 0 -- -- 82
2020-06-04 21:00:00 12.5 11 Noroeste 31 Oeste 0 -- -- 80
2020-06-04 20:00:00 13.4 18 Noroeste 35 Noroeste 0 -- -- 76
2020-06-04 19:00:00 15.1 17 Noroeste 38 Norte 0 -- -- 68
2020-06-04 18:00:00 14.9 24 Norte 42 Norte 0 -- -- 68
2020-06-04 17:00:00 16.1 23 Norte 41 Norte 0 -- -- 68
2020-06-04 16:00:00 14.6 15 Noroeste 39 Norte 0 -- -- 66
2020-06-04 15:00:00 15.7 19 Norte 32 Norte 0 -- -- 64
2020-06-04 14:00:00 15.7 15 Noroeste 31 Noroeste 0 -- -- 67
2020-06-04 13:00:00 14.9 13 Noroeste 29 Noroeste 0 -- -- 76
2020-06-04 12:00:00 12.7 15 Norte 26 Norte 0 -- -- 84
2020-06-04 11:00:00 12.7 15 Noroeste 29 Noroeste 0 -- -- 82
2020-06-04 10:00:00 12.2 7 Norte 16 Oeste 0 -- -- 88
2020-06-04 09:00:00 12.1 4 Sur 8 Sur 0 -- -- 92
2020-06-04 08:00:00 9.4 3 Sur 9 Sudeste 0 -- -- 99
2020-06-04 07:00:00 7.4 0 Calma 8 Oeste 0 -- -- 100
2020-06-04 06:00:00 8.1 3 Sur 10 Sur 0 -- -- 99
2020-06-04 05:00:00 8.6 3 Sur 8 Sur 0 -- -- 99
2020-06-04 04:00:00 9.2 2 Sur 8 Sudoeste 0 -- -- 99
2020-06-04 03:00:00 9.4 3 Sur 7 Sur 0 -- -- 98
2020-06-04 02:00:00 10.2 0 Calma 3 Sudoeste 0 -- -- 96
2020-06-04 01:00:00 11.5 0 Calma 11 Norte 0 -- -- 94
2020-06-04 00:00:00 11.9 2 Noroeste 12 Noroeste 0 -- -- 94